La Aurora Airport Guatemala City US
ICAO: MGGT
IATA: GUA
Category: Medium
Scheduled Services: Yes

Elevation: 4952 ft
TransAlt. 18000 ft.

Airport Communications:
GUATEMALA RDO:126.9
CON:119.3
ATIS:126.5
CLNC DEL:120.7
GND:121.9
TWR:118.1

MGGT Zoom In..

Runways:

(A) RW 01 length 9800 ft width 197 ft
ILS 110.10 / hdg 16

(B) RW 19 length 9800 ft width 197 ft
---- / hdg 196

Location; MGGT
Day. 04 / Time. 14.00 Zulu
* Altimeter: 30.24
* Temperature: 20° c. 68°f.
* Wind from: 000° Speed 00 kn.
Dewpoint: 16° c.
Visibility: 8000 m.
Clouds: Clear (manual report).
Conditions: Haze.

MGGT 041400Z 00000KT 8000 SKC 20/16 Q1024 A3024 HZ


Wind - Calm.

 
 
jpsmedia worldairports.se 2020   terms of use